createdAt,value
2022-11-16T00:02:22.509Z,31.08
2022-11-16T00:04:49.622Z,29.33
2022-11-16T00:07:16.806Z,30.20
2022-11-16T00:09:43.750Z,29.00
2022-11-16T00:12:10.708Z,30.50
2022-11-16T00:14:37.721Z,29.25
2022-11-16T00:17:04.615Z,31.52
2022-11-16T00:19:31.632Z,32.63
2022-11-16T00:21:58.571Z,30.83
2022-11-16T00:24:25.483Z,30.88
2022-11-16T00:26:52.398Z,30.15
2022-11-16T00:29:19.344Z,30.55
2022-11-16T00:31:46.265Z,29.65
2022-11-16T00:34:13.208Z,30.75
2022-11-16T00:36:40.129Z,29.65
2022-11-16T00:39:07.082Z,31.10
2022-11-16T00:41:34.006Z,29.83
2022-11-16T00:44:00.961Z,27.27
2022-11-16T00:46:27.893Z,27.52
2022-11-16T00:48:54.846Z,28.83
2022-11-16T00:51:21.884Z,29.08
2022-11-16T00:53:48.859Z,26.52
2022-11-16T00:56:15.772Z,26.98
2022-11-16T00:58:42.728Z,28.73
2022-11-16T01:01:09.735Z,27.73
2022-11-16T01:03:36.755Z,28.90
2022-11-16T01:06:03.674Z,27.00
2022-11-16T01:08:30.969Z,27.05
2022-11-16T01:10:58.793Z,27.75
2022-11-16T01:13:25.725Z,26.20
2022-11-16T01:15:52.637Z,25.30
2022-11-16T01:18:19.579Z,25.33
2022-11-16T01:20:46.706Z,26.67
2022-11-16T01:23:13.602Z,26.77
2022-11-16T01:25:40.523Z,24.95
2022-11-16T01:28:07.423Z,25.52
2022-11-16T01:30:34.378Z,26.35
2022-11-16T01:33:01.484Z,25.00
2022-11-16T01:35:28.382Z,24.73
2022-11-16T01:37:55.288Z,27.20
2022-11-16T01:40:22.258Z,25.02
2022-11-16T01:42:49.181Z,26.75
2022-11-16T01:45:16.127Z,26.02
2022-11-16T01:47:43.028Z,25.83
2022-11-16T01:50:09.936Z,26.17
2022-11-16T01:52:37.034Z,27.40
2022-11-16T01:55:03.925Z,27.58
2022-11-16T01:57:30.828Z,30.08
2022-11-16T01:59:57.796Z,27.45
2022-11-16T02:02:24.725Z,27.73
2022-11-16T02:04:51.675Z,28.63
2022-11-16T02:07:18.687Z,29.13
2022-11-16T02:09:45.650Z,26.95
2022-11-16T02:12:12.556Z,26.80
2022-11-16T02:14:39.505Z,26.83
2022-11-16T02:17:06.413Z,25.70
2022-11-16T02:19:33.388Z,28.67
2022-11-16T02:22:00.284Z,25.83
2022-11-16T02:24:27.219Z,29.02
2022-11-16T02:26:54.145Z,30.00
2022-11-16T02:29:21.111Z,31.00
2022-11-16T02:31:48.019Z,26.88
2022-11-16T02:34:14.937Z,27.25
2022-11-16T02:36:41.863Z,28.00
2022-11-16T02:39:08.760Z,27.38
2022-11-16T02:41:35.688Z,25.95
2022-11-16T02:44:02.615Z,26.88
2022-11-16T02:46:29.554Z,27.08
2022-11-16T02:48:56.469Z,30.20
2022-11-16T02:51:23.373Z,32.53
2022-11-16T02:53:50.287Z,27.95
2022-11-16T02:56:17.247Z,28.58
2022-11-16T02:58:44.132Z,30.83
2022-11-16T03:01:11.144Z,29.73
2022-11-16T03:03:38.124Z,28.45
2022-11-16T03:06:05.087Z,26.10
2022-11-16T03:08:32.440Z,27.38
2022-11-16T03:16:17.822Z,30.45
2022-11-16T03:18:44.759Z,27.88
2022-11-16T03:21:11.744Z,28.65
2022-11-16T03:23:38.652Z,31.05
2022-11-16T03:26:05.584Z,28.45
2022-11-16T03:28:32.759Z,26.92
2022-11-16T03:30:59.924Z,26.95
2022-11-16T03:33:26.844Z,25.85
2022-11-16T03:35:53.772Z,30.80
2022-11-16T03:38:20.713Z,26.83
2022-11-16T03:40:47.701Z,27.70
2022-11-16T03:43:14.617Z,29.02
2022-11-16T03:45:41.558Z,29.95
2022-11-16T03:48:08.493Z,27.90
2022-11-16T03:50:35.442Z,27.85
2022-11-16T03:53:02.488Z,27.77
2022-11-16T03:55:29.469Z,28.98
2022-11-16T03:57:56.381Z,28.98
2022-11-16T04:00:23.300Z,28.90
2022-11-16T04:02:50.195Z,28.25
2022-11-16T04:05:17.239Z,28.92
2022-11-16T04:07:44.153Z,29.42
2022-11-16T04:10:11.087Z,28.13
2022-11-16T04:12:37.972Z,31.90
2022-11-16T04:15:04.898Z,31.40
2022-11-16T04:17:31.894Z,31.30
2022-11-16T04:19:58.788Z,28.33
2022-11-16T04:22:25.714Z,34.35
2022-11-16T04:24:52.679Z,30.02
2022-11-16T04:27:19.599Z,29.83
2022-11-16T04:29:46.809Z,28.73
2022-11-16T04:32:13.815Z,31.80
2022-11-16T04:34:40.753Z,29.60
2022-11-16T04:37:07.754Z,32.38
2022-11-16T04:39:34.727Z,29.48
2022-11-16T04:42:01.658Z,30.67
2022-11-16T04:44:30.063Z,29.00
2022-11-16T04:46:57.326Z,28.63
2022-11-16T04:49:24.239Z,28.70
2022-11-16T04:51:51.126Z,29.15
2022-11-16T04:54:18.045Z,29.42
2022-11-16T04:56:44.948Z,27.83
2022-11-16T04:59:11.939Z,30.70
2022-11-16T05:01:39.014Z,29.55
2022-11-16T05:04:06.005Z,30.73
2022-11-16T05:06:32.995Z,29.55
2022-11-16T05:08:59.914Z,28.95
2022-11-16T05:11:26.818Z,30.73
2022-11-16T05:13:53.784Z,30.92
2022-11-16T05:16:20.697Z,25.80
2022-11-16T05:18:47.606Z,28.20
2022-11-16T05:21:14.553Z,28.50
2022-11-16T05:23:41.656Z,27.95
2022-11-16T05:26:08.630Z,31.55
2022-11-16T05:28:35.875Z,29.10
2022-11-16T05:31:03.000Z,28.52
2022-11-16T05:33:29.907Z,27.55
2022-11-16T05:36:00.533Z,27.33
2022-11-16T05:38:27.475Z,29.52
2022-11-16T05:40:54.448Z,30.98
2022-11-16T05:43:21.344Z,29.50
2022-11-16T05:45:48.290Z,31.10
2022-11-16T05:48:15.181Z,31.52
2022-11-16T05:50:43.151Z,32.05
2022-11-16T05:53:10.352Z,31.85
2022-11-16T05:55:37.299Z,30.02
2022-11-16T05:58:04.175Z,29.38
2022-11-16T06:00:31.046Z,31.58
2022-11-16T06:02:57.985Z,28.02
2022-11-16T06:05:24.914Z,31.02
2022-11-16T06:07:51.814Z,30.33
2022-11-16T06:10:18.736Z,28.38
2022-11-16T06:12:45.646Z,26.33
2022-11-16T06:15:12.587Z,29.23
2022-11-16T06:17:39.474Z,32.22
2022-11-16T06:20:06.375Z,30.60
2022-11-16T06:22:33.306Z,31.33
2022-11-16T06:25:00.176Z,27.88
2022-11-16T06:27:27.074Z,30.48
2022-11-16T06:29:53.950Z,28.52
2022-11-16T06:32:20.862Z,32.03
2022-11-16T06:34:47.754Z,29.75
2022-11-16T06:37:15.374Z,32.63
2022-11-16T06:39:42.297Z,33.78
2022-11-16T06:44:59.929Z,30.92
2022-11-16T06:47:27.027Z,30.55
2022-11-16T06:49:53.983Z,28.95
2022-11-16T06:52:43.682Z,35.90
2022-11-16T06:55:10.629Z,32.47
2022-11-16T06:57:44.635Z,30.33
2022-11-16T07:00:17.757Z,30.85
2022-11-16T07:02:44.686Z,27.92
2022-11-16T07:05:23.780Z,29.90
2022-11-16T07:07:59.002Z,30.33
2022-11-16T07:10:25.921Z,27.98
2022-11-16T07:12:54.539Z,29.25
2022-11-16T07:15:22.657Z,31.05
2022-11-16T07:17:49.706Z,31.10
2022-11-16T07:20:16.673Z,28.42
2022-11-16T07:22:43.690Z,30.13
2022-11-16T07:25:10.661Z,30.83
2022-11-16T07:27:37.625Z,35.60
2022-11-16T07:30:06.578Z,31.00
2022-11-16T07:32:33.528Z,32.47
2022-11-16T07:35:00.442Z,32.00
2022-11-16T07:37:27.337Z,32.80
2022-11-16T07:39:54.234Z,35.35
2022-11-16T07:42:23.082Z,35.38
2022-11-16T07:44:50.032Z,36.17
2022-11-16T07:47:16.957Z,34.95
2022-11-16T07:55:15.434Z,37.38
2022-11-16T07:57:42.510Z,35.40
2022-11-16T08:02:55.899Z,33.75
2022-11-16T08:05:26.070Z,33.13
2022-11-16T08:07:53.008Z,39.73
2022-11-16T08:10:23.083Z,37.38
2022-11-16T08:12:59.251Z,40.58
2022-11-16T08:15:26.191Z,38.00
2022-11-16T08:17:53.297Z,37.00
2022-11-16T08:20:20.215Z,35.03
2022-11-16T08:26:36.860Z,37.60
2022-11-16T08:31:20.824Z,40.13
2022-11-16T08:33:47.978Z,42.28
2022-11-16T08:36:15.134Z,41.13
2022-11-16T08:38:42.076Z,41.40
2022-11-16T08:43:49.872Z,39.00
2022-11-16T08:46:16.808Z,38.17
2022-11-16T08:48:43.776Z,39.75
2022-11-16T08:51:17.593Z,42.42
2022-11-16T08:53:45.707Z,37.58
2022-11-16T08:56:12.620Z,36.63
2022-11-16T08:58:39.570Z,38.75
2022-11-16T09:01:06.542Z,38.80
2022-11-16T09:03:33.544Z,41.53
2022-11-16T09:06:00.496Z,40.28
2022-11-16T09:08:27.465Z,34.67
2022-11-16T09:10:54.382Z,39.22
2022-11-16T09:13:21.437Z,34.70
2022-11-16T09:15:48.366Z,39.88
2022-11-16T09:18:15.278Z,36.00
2022-11-16T09:20:42.182Z,36.78
2022-11-16T09:23:09.091Z,34.70
2022-11-16T09:25:36.104Z,37.13
2022-11-16T09:28:03.077Z,35.35
2022-11-16T09:30:30.001Z,39.78
2022-11-16T09:32:56.993Z,40.80
2022-11-16T09:35:23.921Z,35.83
2022-11-16T09:37:50.879Z,37.72
2022-11-16T09:40:17.789Z,33.55
2022-11-16T09:42:44.734Z,33.88
2022-11-16T09:45:11.689Z,35.80
2022-11-16T09:47:38.618Z,31.73
2022-11-16T09:50:05.573Z,34.90
2022-11-16T09:52:32.507Z,33.80
2022-11-16T09:54:59.452Z,37.47
2022-11-16T09:57:26.369Z,34.15
2022-11-16T09:59:53.273Z,31.55
2022-11-16T10:02:20.156Z,34.63
2022-11-16T10:04:47.094Z,32.85
2022-11-16T10:07:14.031Z,32.17
2022-11-16T10:09:40.978Z,41.35
2022-11-16T10:12:07.892Z,32.00
2022-11-16T10:14:34.824Z,34.90
2022-11-16T10:17:01.715Z,37.03
2022-11-16T10:19:28.736Z,32.47
2022-11-16T10:21:55.839Z,34.55
2022-11-16T10:24:22.738Z,33.97
2022-11-16T10:26:49.637Z,33.42
2022-11-16T10:29:16.544Z,35.85
2022-11-16T10:31:43.439Z,32.25
2022-11-16T10:34:10.372Z,35.58
2022-11-16T10:36:37.275Z,32.15
2022-11-16T10:39:04.193Z,34.78
2022-11-16T10:41:31.083Z,35.67
2022-11-16T10:43:57.992Z,37.65
2022-11-16T10:46:24.912Z,34.15
2022-11-16T10:48:51.837Z,32.03
2022-11-16T10:51:18.752Z,33.33
2022-11-16T10:53:45.729Z,33.80
2022-11-16T10:56:12.641Z,29.17
2022-11-16T10:58:40.757Z,31.83
2022-11-16T11:01:07.689Z,33.40
2022-11-16T11:03:34.979Z,32.45
2022-11-16T11:06:02.114Z,31.88
2022-11-16T11:08:29.055Z,32.85
2022-11-16T11:10:55.963Z,31.83
2022-11-16T11:13:22.861Z,29.30
2022-11-16T11:15:49.806Z,29.23
2022-11-16T11:18:16.749Z,32.38
2022-11-16T11:20:45.319Z,32.58
2022-11-16T11:23:12.453Z,32.50
2022-11-16T11:25:39.327Z,34.55
2022-11-16T11:28:06.247Z,30.40
2022-11-16T11:30:33.170Z,30.02
2022-11-16T11:33:00.096Z,30.00
2022-11-16T11:35:27.013Z,29.55
2022-11-16T11:37:53.918Z,32.92
2022-11-16T11:40:20.825Z,31.75
2022-11-16T11:42:47.733Z,30.42
2022-11-16T11:45:14.639Z,30.80
2022-11-16T11:47:59.143Z,32.10
2022-11-16T11:50:26.447Z,28.13
2022-11-16T11:52:53.337Z,32.90
2022-11-16T11:55:20.230Z,28.77
2022-11-16T11:57:47.320Z,29.52
2022-11-16T12:00:14.279Z,29.27
2022-11-16T12:02:41.299Z,29.50
2022-11-16T12:05:08.211Z,30.10
2022-11-16T12:07:35.129Z,29.90
2022-11-16T12:10:02.053Z,28.88
2022-11-16T12:12:28.945Z,30.15
2022-11-16T12:14:55.832Z,30.90
2022-11-16T12:17:22.810Z,32.03
2022-11-16T12:19:49.764Z,29.65
2022-11-16T12:22:16.662Z,28.90
2022-11-16T12:24:43.541Z,31.92
2022-11-16T12:27:10.450Z,30.50
2022-11-16T12:29:37.536Z,36.20
2022-11-16T12:32:04.440Z,31.98
2022-11-16T12:34:31.374Z,35.50
2022-11-16T12:36:58.304Z,31.95
2022-11-16T12:39:25.228Z,34.83
2022-11-16T12:41:52.146Z,33.00
2022-11-16T12:44:22.329Z,31.38
2022-11-16T12:46:49.271Z,32.00
2022-11-16T12:49:19.401Z,35.17
2022-11-16T12:51:46.349Z,30.67
2022-11-16T12:54:13.346Z,31.95
2022-11-16T12:56:43.402Z,33.55
2022-11-16T12:59:14.460Z,31.25
2022-11-16T13:01:41.475Z,32.80
2022-11-16T13:04:08.461Z,31.45
2022-11-16T13:06:36.448Z,27.63
2022-11-16T13:11:46.666Z,31.15
2022-11-16T13:20:03.884Z,30.15
2022-11-16T13:22:30.872Z,29.23
2022-11-16T13:24:59.158Z,29.95
2022-11-16T13:27:26.170Z,31.33
2022-11-16T13:29:53.217Z,26.75
2022-11-16T13:32:20.221Z,27.65
2022-11-16T13:34:47.307Z,28.95
2022-11-16T13:37:14.361Z,27.88
2022-11-16T13:39:41.318Z,24.02
2022-11-16T13:42:08.282Z,24.92
2022-11-16T13:44:35.215Z,27.90
2022-11-16T14:09:31.926Z,22.50
2022-11-16T14:12:02.250Z,21.10
2022-11-16T14:14:31.616Z,18.67
2022-11-16T14:16:58.813Z,19.55
2022-11-16T14:33:38.579Z,17.92
2022-11-16T14:36:05.651Z,16.40
2022-11-16T14:38:32.613Z,17.17
2022-11-16T14:41:00.109Z,18.08
2022-11-16T14:43:27.172Z,19.90
2022-11-16T14:45:54.086Z,16.73
2022-11-16T14:48:21.064Z,18.33
2022-11-16T14:50:47.991Z,18.13
2022-11-16T14:53:14.915Z,15.88
2022-11-16T14:55:41.818Z,17.85
2022-11-16T14:58:08.738Z,17.42
2022-11-16T15:00:35.631Z,16.42
2022-11-16T15:03:03.116Z,17.55
2022-11-16T15:05:30.142Z,16.85
2022-11-16T15:07:57.096Z,18.33
2022-11-16T15:10:23.993Z,18.45
2022-11-16T15:12:50.899Z,18.52
2022-11-16T15:15:17.835Z,20.00
2022-11-16T15:17:44.749Z,20.58
2022-11-16T15:20:11.658Z,18.30
2022-11-16T15:22:38.574Z,18.20
2022-11-16T15:25:05.479Z,16.55
2022-11-16T15:27:32.393Z,16.50
2022-11-16T15:29:59.320Z,16.77
2022-11-16T15:32:26.229Z,18.55
2022-11-16T15:34:53.157Z,15.48
2022-11-16T15:37:21.144Z,17.95
2022-11-16T15:39:48.055Z,17.42
2022-11-16T15:42:14.942Z,17.13
2022-11-16T15:44:41.855Z,17.00
2022-11-16T15:47:08.765Z,16.88
2022-11-16T15:49:35.715Z,16.30
2022-11-16T15:52:02.640Z,16.13
2022-11-16T15:54:29.564Z,17.65
2022-11-16T15:56:56.469Z,18.20
2022-11-16T15:59:23.397Z,17.40
2022-11-16T16:01:50.311Z,16.67
2022-11-16T16:04:17.268Z,15.52
2022-11-16T16:06:44.190Z,15.23
2022-11-16T16:09:11.121Z,16.00
2022-11-16T16:11:38.031Z,16.65
2022-11-16T16:14:05.117Z,16.42
2022-11-16T16:16:32.037Z,13.77
2022-11-16T16:18:59.192Z,16.33
2022-11-16T16:21:26.612Z,13.48
2022-11-16T16:23:53.545Z,13.90
2022-11-16T16:26:20.445Z,14.93
2022-11-16T16:28:47.547Z,12.70
2022-11-16T16:31:14.668Z,14.75
2022-11-16T16:33:41.681Z,12.95
2022-11-16T16:36:08.672Z,12.23
2022-11-16T16:38:35.658Z,12.65
2022-11-16T16:41:02.652Z,11.35
2022-11-16T16:43:29.607Z,12.68
2022-11-16T16:45:56.584Z,13.75
2022-11-16T16:48:23.499Z,13.00
2022-11-16T16:50:57.126Z,14.43
2022-11-16T16:53:29.756Z,11.57
2022-11-16T16:55:56.738Z,11.85
2022-11-16T16:58:23.678Z,12.98
2022-11-16T17:00:50.920Z,12.05
2022-11-16T17:03:17.924Z,11.82
2022-11-16T17:05:47.623Z,14.10
2022-11-16T17:08:14.523Z,14.63
2022-11-16T17:10:44.531Z,12.63
2022-11-16T17:13:11.426Z,15.38
2022-11-16T17:15:38.379Z,13.60
2022-11-16T17:18:05.295Z,13.85
2022-11-16T17:20:32.259Z,14.15
2022-11-16T17:22:59.180Z,15.77
2022-11-16T17:25:26.094Z,15.15
2022-11-16T17:27:53.010Z,13.43
2022-11-16T17:30:19.987Z,13.05
2022-11-16T17:32:46.895Z,14.50
2022-11-16T17:35:13.877Z,13.80
2022-11-16T17:37:40.827Z,13.70
2022-11-16T17:40:07.737Z,13.90
2022-11-16T17:42:34.671Z,13.27
2022-11-16T17:45:01.590Z,11.40
2022-11-16T17:47:28.519Z,13.55
2022-11-16T17:49:55.435Z,12.68
2022-11-16T17:52:22.467Z,11.73
2022-11-16T17:54:49.419Z,13.40
2022-11-16T17:57:16.368Z,13.30
2022-11-16T17:59:46.555Z,11.80
2022-11-16T18:02:13.517Z,12.03
2022-11-16T18:19:06.499Z,12.43
2022-11-16T18:21:33.667Z,13.43
2022-11-16T18:24:00.561Z,13.65
2022-11-16T18:26:27.461Z,12.85
2022-11-16T18:28:54.340Z,15.30
2022-11-16T18:31:21.274Z,13.18
2022-11-16T18:33:48.223Z,13.07
2022-11-16T18:36:15.157Z,12.60
2022-11-16T18:38:42.068Z,13.43
2022-11-16T18:41:09.070Z,13.30
2022-11-16T18:43:36.564Z,16.05
2022-11-16T18:46:03.706Z,13.00
2022-11-16T18:48:30.617Z,14.98
2022-11-16T18:50:57.518Z,13.20
2022-11-16T18:53:24.427Z,15.70
2022-11-16T18:55:56.515Z,13.52
2022-11-16T18:58:49.413Z,17.23
2022-11-16T19:01:11.920Z,15.35
2022-11-16T19:03:38.887Z,16.95
2022-11-16T19:06:05.813Z,17.55
2022-11-16T19:08:32.744Z,15.40
2022-11-16T19:10:59.647Z,15.07
2022-11-16T19:13:26.543Z,15.90
2022-11-16T19:15:53.500Z,17.50
2022-11-16T19:18:22.029Z,16.80
2022-11-16T19:20:49.210Z,14.30
2022-11-16T19:23:16.119Z,16.17
2022-11-16T19:25:43.019Z,16.58
2022-11-16T19:28:09.908Z,15.57
2022-11-16T19:30:36.905Z,13.57
2022-11-16T19:33:03.788Z,13.93
2022-11-16T19:35:30.739Z,14.68
2022-11-16T19:37:58.698Z,12.48
2022-11-16T19:40:25.648Z,12.93
2022-11-16T19:42:52.564Z,13.23
2022-11-16T19:45:19.497Z,15.55
2022-11-16T19:47:46.464Z,12.45
2022-11-16T19:50:13.389Z,13.43
2022-11-16T19:52:41.765Z,14.18
2022-11-16T19:55:17.173Z,12.65
2022-11-16T20:00:24.960Z,12.40
2022-11-16T20:02:51.995Z,11.85
2022-11-16T20:05:20.969Z,13.73
2022-11-16T20:07:47.966Z,12.60
2022-11-16T20:10:16.202Z,13.38
2022-11-16T20:12:43.150Z,14.30
2022-11-16T20:15:10.098Z,14.30
2022-11-16T20:17:39.849Z,12.93
2022-11-16T20:20:06.781Z,14.80
2022-11-16T20:22:33.819Z,15.68
2022-11-16T20:25:00.769Z,13.25
2022-11-16T20:27:27.819Z,13.18
2022-11-16T20:29:54.752Z,13.57
2022-11-16T20:32:21.792Z,13.40
2022-11-16T20:34:48.863Z,13.15
2022-11-16T20:37:15.863Z,12.18
2022-11-16T20:39:42.938Z,13.60
2022-11-16T20:42:11.943Z,12.60
2022-11-16T20:44:38.858Z,13.40
2022-11-16T20:47:05.790Z,13.63
2022-11-16T20:49:35.990Z,13.63
2022-11-16T20:52:03.027Z,14.60
2022-11-16T20:54:29.937Z,12.80
2022-11-16T20:57:04.782Z,11.95
2022-11-16T20:59:42.206Z,12.45
2022-11-16T21:05:00.226Z,12.63
2022-11-16T21:07:32.354Z,11.43
2022-11-16T21:10:02.297Z,12.70
2022-11-16T21:12:29.324Z,13.57
2022-11-16T21:15:00.548Z,12.88
2022-11-16T21:17:30.344Z,12.60
2022-11-16T21:20:25.739Z,11.55
2022-11-16T21:22:47.150Z,11.93
2022-11-16T21:27:58.244Z,11.75
2022-11-16T21:30:25.486Z,11.68
2022-11-16T21:33:10.070Z,10.65
2022-11-16T21:39:02.186Z,12.07
2022-11-16T21:41:19.457Z,12.75
2022-11-16T21:43:46.500Z,12.10
2022-11-16T21:46:21.766Z,10.93
2022-11-16T21:48:48.853Z,10.10
2022-11-16T21:51:15.907Z,11.93
2022-11-16T21:59:14.573Z,12.20
2022-11-16T22:01:48.259Z,9.70
2022-11-16T22:04:17.861Z,9.50
2022-11-16T22:06:48.504Z,9.50
2022-11-16T22:09:19.596Z,14.38
2022-11-16T22:31:44.668Z,8.40
2022-11-16T22:34:20.666Z,9.18
2022-11-16T22:39:39.555Z,9.15
2022-11-16T22:47:41.596Z,8.23
2022-11-16T22:50:08.529Z,7.75
2022-11-16T22:52:35.445Z,8.07
2022-11-16T22:57:54.217Z,9.73
2022-11-16T23:00:27.901Z,7.15
2022-11-16T23:08:27.238Z,6.75
2022-11-16T23:10:54.267Z,6.60
2022-11-16T23:13:21.172Z,6.70
2022-11-16T23:15:48.143Z,7.00
2022-11-16T23:18:15.082Z,6.38
2022-11-16T23:20:42.034Z,9.70
2022-11-16T23:23:08.981Z,6.88
2022-11-16T23:25:35.920Z,7.55
2022-11-16T23:28:02.931Z,7.30
2022-11-16T23:30:29.941Z,8.93
2022-11-16T23:32:56.880Z,7.20
2022-11-16T23:35:23.924Z,7.57
2022-11-16T23:37:50.892Z,7.70
2022-11-16T23:40:20.831Z,8.23
2022-11-16T23:42:47.828Z,7.80
2022-11-16T23:45:14.729Z,6.65
2022-11-16T23:47:41.982Z,7.15
2022-11-16T23:50:09.080Z,7.95
2022-11-16T23:52:36.174Z,8.52
2022-11-16T23:55:03.078Z,7.55
2022-11-16T23:57:30.046Z,7.53
2022-11-16T23:59:56.932Z,6.95
